Time;durP1;ratioP1;P1;durP2;ratioP2;P2;SDS_P1;SDS_P2;PMS_P1;PMS_P2;Temp;Humidity;BMP_temperature;BMP_pressure;BME280_temperature;BME280_humidity;BME280_pressure;Samples;Min_cycle;Max_cycle;Signal;HPM_P1;HPM_P2
2022/08/04 00:00:39;;;;;;;3.05;2.00;;;20.30;99.90;;;;;;5133560;28;20275;-84
2022/08/04 00:03:15;;;;;;;2.45;1.90;;;20.30;99.90;;;;;;5122478;28;20207;-83
2022/08/04 00:06:02;;;;;;;3.08;2.42;;;20.30;99.90;;;;;;5117481;28;20277;-84
2022/08/04 00:08:37;;;;;;;3.40;2.10;;;20.30;99.90;;;;;;5118454;27;20210;-83
2022/08/04 00:11:06;;;;;;;3.47;2.33;;;20.30;99.90;;;;;;5137633;27;20236;-84
2022/08/04 00:13:38;;;;;;;2.83;2.10;;;20.30;99.90;;;;;;5137364;27;20198;-84
2022/08/04 00:16:08;;;;;;;2.42;2.05;;;20.20;99.90;;;;;;5137617;27;20218;-84
2022/08/04 00:18:40;;;;;;;2.17;1.83;;;20.20;99.90;;;;;;5126110;27;20287;-85
2022/08/04 00:21:12;;;;;;;2.15;1.95;;;20.20;99.90;;;;;;5116604;28;20215;-82
2022/08/04 00:23:43;;;;;;;2.88;2.20;;;20.20;99.90;;;;;;5117257;27;20195;-83
2022/08/04 00:26:10;;;;;;;3.95;2.50;;;20.10;99.90;;;;;;5116969;28;20202;-83
2022/08/04 00:28:39;;;;;;;3.20;2.28;;;20.10;99.90;;;;;;5116455;28;20611;-83
2022/08/04 00:31:10;;;;;;;2.80;2.13;;;20.10;99.90;;;;;;5116597;28;20219;-84
2022/08/04 00:33:38;;;;;;;5.07;2.05;;;20.10;99.90;;;;;;5116657;28;20187;-84
2022/08/04 00:36:06;;;;;;;2.65;2.40;;;20.10;99.90;;;;;;5116394;28;20300;-83
2022/08/04 00:38:35;;;;;;;2.70;2.42;;;20.10;99.90;;;;;;5134551;27;20251;-84
2022/08/04 00:41:13;;;;;;;2.30;2.10;;;20.10;99.90;;;;;;5136960;27;20187;-84
2022/08/04 00:43:48;;;;;;;2.88;2.25;;;20.00;99.90;;;;;;5137323;27;20497;-83
2022/08/04 00:46:48;;;;;;;2.75;2.17;;;20.00;99.90;;;;;;5119076;27;20207;-80
2022/08/04 00:49:43;;;;;;;3.35;2.17;;;20.00;99.90;;;;;;5116286;27;20222;-84
2022/08/04 00:52:23;;;;;;;3.22;2.72;;;20.00;99.90;;;;;;5115634;28;20223;-84
2022/08/04 00:55:06;;;;;;;3.85;2.20;;;20.00;99.90;;;;;;5116912;28;20634;-83
2022/08/04 00:57:49;;;;;;;4.95;2.30;;;20.00;99.90;;;;;;5116185;28;20192;-84
2022/08/04 01:00:16;;;;;;;4.55;2.83;;;20.00;99.90;;;;;;5116785;27;20279;-83
2022/08/04 01:03:00;;;;;;;3.15;2.83;;;19.90;99.90;;;;;;5119135;27;20596;-85
2022/08/04 01:05:41;;;;;;;3.08;2.05;;;19.90;99.90;;;;;;5136164;27;20199;-84
2022/08/04 01:08:27;;;;;;;2.80;2.53;;;19.90;99.90;;;;;;5136623;27;20201;-85
2022/08/04 01:11:04;;;;;;;4.47;2.30;;;19.90;99.90;;;;;;5116046;28;20258;-84
2022/08/04 01:13:53;;;;;;;2.58;2.38;;;19.90;99.90;;;;;;5117166;28;20188;-84
2022/08/04 01:16:24;;;;;;;4.03;2.60;;;19.90;99.90;;;;;;5116068;27;20180;-85
2022/08/04 01:18:58;;;;;;;3.03;2.33;;;19.90;99.90;;;;;;5116656;28;20219;-85
2022/08/04 01:22:05;;;;;;;3.95;2.60;;;19.90;99.90;;;;;;5116224;28;20188;-84
2022/08/04 01:25:03;;;;;;;2.88;2.60;;;19.90;99.90;;;;;;5115721;27;20275;-84
2022/08/04 01:27:49;;;;;;;3.88;2.30;;;19.90;99.90;;;;;;5081833;28;20205;-85
2022/08/04 01:30:18;;;;;;;3.05;2.45;;;19.90;99.90;;;;;;5116546;27;20195;-85
2022/08/04 01:32:50;;;;;;;5.32;2.63;;;19.90;99.90;;;;;;5116158;28;20200;-85
2022/08/04 01:35:23;;;;;;;3.92;2.60;;;19.90;99.90;;;;;;5116240;28;20191;-83
2022/08/04 01:38:01;;;;;;;4.40;2.53;;;19.90;99.90;;;;;;5116466;27;20310;-84
2022/08/04 01:40:28;;;;;;;4.07;2.20;;;19.90;99.90;;;;;;5118318;27;20191;-86
2022/08/04 01:42:56;;;;;;;3.45;1.92;;;19.90;99.90;;;;;;5117954;27;20219;-84
2022/08/04 01:45:25;;;;;;;3.40;2.15;;;19.90;99.90;;;;;;5132035;27;20286;-85
2022/08/04 01:47:54;;;;;;;3.65;2.50;;;19.80;99.90;;;;;;5117148;28;20192;-84
2022/08/04 01:50:23;;;;;;;3.50;2.22;;;19.80;99.90;;;;;;5116463;28;20200;-84
2022/08/04 01:52:54;;;;;;;4.13;2.30;;;19.80;99.90;;;;;;5116298;27;20235;-84
2022/08/04 01:55:22;;;;;;;2.75;2.15;;;19.80;99.90;;;;;;5115399;28;20196;-83
2022/08/04 01:57:51;;;;;;;3.33;2.22;;;19.80;99.90;;;;;;5119306;27;20200;-81
2022/08/04 02:00:20;;;;;;;4.35;2.50;;;19.80;99.90;;;;;;5120635;27;20203;-78
2022/08/04 02:02:50;;;;;;;2.90;2.20;;;19.80;99.90;;;;;;5114501;27;20242;-80
2022/08/04 02:05:19;;;;;;;2.85;2.50;;;19.80;99.90;;;;;;5114531;28;20275;-80
2022/08/04 02:07:59;;;;;;;3.42;2.15;;;19.80;99.90;;;;;;5113498;28;20196;-80
2022/08/04 02:10:29;;;;;;;3.95;2.28;;;19.80;99.90;;;;;;5113985;28;20231;-80
2022/08/04 02:13:05;;;;;;;3.10;2.08;;;19.70;99.90;;;;;;5113873;28;20200;-79
2022/08/04 02:15:51;;;;;;;2.70;2.08;;;19.70;99.90;;;;;;5113663;28;20202;-79
2022/08/04 02:18:24;;;;;;;3.90;2.78;;;19.70;99.90;;;;;;5113535;28;20202;-80
2022/08/04 02:20:57;;;;;;;3.60;2.65;;;19.70;99.90;;;;;;5113200;28;20200;-79
2022/08/04 02:23:30;;;;;;;4.05;2.30;;;19.70;99.90;;;;;;5113155;28;20218;-79
2022/08/04 02:26:00;;;;;;;3.38;2.45;;;19.70;99.90;;;;;;5113085;27;20184;-79
2022/08/04 02:28:33;;;;;;;3.28;2.50;;;19.70;99.90;;;;;;5113091;28;20253;-80
2022/08/04 02:31:12;;;;;;;3.35;2.40;;;19.60;99.90;;;;;;5112681;27;20227;-80
2022/08/04 02:33:43;;;;;;;2.75;2.30;;;19.70;99.90;;;;;;5113333;28;20188;-80
2022/08/04 02:36:16;;;;;;;2.45;2.10;;;19.60;99.90;;;;;;5113681;28;20208;-79
2022/08/04 02:38:56;;;;;;;2.55;2.35;;;19.60;99.90;;;;;;5112830;28;20257;-79
2022/08/04 02:41:25;;;;;;;2.55;2.35;;;19.60;99.90;;;;;;5112090;28;20192;-80
2022/08/04 02:43:55;;;;;;;2.63;2.30;;;19.60;99.90;;;;;;5113705;27;20211;-79
2022/08/04 02:46:25;;;;;;;2.97;2.55;;;19.60;99.90;;;;;;5113437;28;20502;-81
2022/08/04 02:48:54;;;;;;;4.20;2.90;;;19.50;99.90;;;;;;5114057;28;20208;-82
2022/08/04 02:51:28;;;;;;;4.38;2.47;;;19.50;99.90;;;;;;5114437;28;20227;-86
2022/08/04 02:53:56;;;;;;;3.15;2.40;;;19.50;99.90;;;;;;5114283;27;20257;-81
2022/08/04 02:56:25;;;;;;;3.20;2.65;;;19.50;99.90;;;;;;5112846;28;20200;-81
2022/08/04 02:58:53;;;;;;;5.55;3.08;;;19.50;99.90;;;;;;5112785;28;20230;-79
2022/08/04 03:01:22;;;;;;;4.75;3.47;;;19.50;99.90;;;;;;5112775;28;20615;-79
2022/08/04 03:04:02;;;;;;;3.58;2.80;;;19.50;99.90;;;;;;5112347;28;20203;-79
2022/08/04 03:06:55;;;;;;;3.90;3.00;;;19.50;99.90;;;;;;5113388;28;20274;-81
2022/08/04 03:09:45;;;;;;;3.63;2.90;;;19.50;99.90;;;;;;5101832;28;20207;-81
2022/08/04 03:12:50;;;;;;;4.53;3.00;;;19.50;99.90;;;;;;5110144;28;20530;-79
2022/08/04 03:15:55;;;;;;;4.35;3.30;;;19.50;99.90;;;;;;5102686;28;20214;-82
2022/08/04 03:18:51;;;;;;;5.63;2.80;;;19.50;99.90;;;;;;5094537;28;20200;-80
2022/08/04 03:21:55;;;;;;;4.43;2.83;;;19.50;99.90;;;;;;5112893;28;20274;-81
2022/08/04 03:24:56;;;;;;;5.50;2.83;;;19.50;99.90;;;;;;5112372;28;20290;-80
2022/08/04 03:27:56;;;;;;;5.78;3.88;;;19.50;99.90;;;;;;5112199;27;20203;-81
2022/08/04 03:30:35;;;;;;;4.53;2.85;;;19.50;99.90;;;;;;5112357;28;20200;-79
2022/08/04 03:33:39;;;;;;;4.97;3.33;;;19.60;99.90;;;;;;5112425;28;20220;-79
2022/08/04 03:36:48;;;;;;;5.43;3.40;;;19.60;99.90;;;;;;5112554;28;20495;-81
2022/08/04 03:39:35;;;;;;;6.05;3.28;;;19.60;99.90;;;;;;5111083;28;20295;-80
2022/08/04 03:42:27;;;;;;;5.00;3.35;;;19.60;99.90;;;;;;5112973;28;20276;-79
2022/08/04 03:45:16;;;;;;;6.35;3.70;;;19.60;99.90;;;;;;5112389;28;20199;-81
2022/08/04 03:48:17;;;;;;;4.55;3.60;;;19.60;99.90;;;;;;5112315;28;20287;-81
2022/08/04 03:53:56;;;;;;;5.38;3.83;;;19.60;99.90;;;;;;5112358;28;20183;-82
2022/08/04 03:56:50;;;;;;;3.58;2.90;;;19.60;99.90;;;;;;5112990;28;20192;-86
2022/08/04 03:59:43;;;;;;;5.72;3.97;;;19.50;99.90;;;;;;5120572;22;20229;-83
2022/08/04 04:02:49;;;;;;;5.32;3.55;;;19.50;99.90;;;;;;5087110;28;20210;-84
2022/08/04 04:05:55;;;;;;;4.13;3.33;;;19.50;99.90;;;;;;5092829;28;20568;-85
2022/08/04 04:09:00;;;;;;;5.97;4.03;;;19.50;99.90;;;;;;5092742;28;20657;-81
2022/08/04 04:12:00;;;;;;;5.07;3.70;;;19.50;99.90;;;;;;5083111;28;20673;-80
2022/08/04 04:14:46;;;;;;;5.97;3.50;;;19.40;99.90;;;;;;5075893;28;20280;-80
2022/08/04 04:17:45;;;;;;;5.82;3.85;;;19.40;99.90;;;;;;5092737;28;20203;-83
2022/08/04 04:20:29;;;;;;;6.68;3.97;;;19.40;99.90;;;;;;5092259;28;20250;-84
2022/08/04 04:23:09;;;;;;;7.07;4.20;;;19.40;99.90;;;;;;5092069;28;20208;-80
2022/08/04 04:25:46;;;;;;;6.22;3.83;;;19.40;99.90;;;;;;5092134;28;20471;-80
2022/08/04 04:28:32;;;;;;;7.35;4.50;;;19.40;99.90;;;;;;5092174;28;20201;-84
2022/08/04 04:31:16;;;;;;;5.78;3.58;;;19.40;99.90;;;;;;5097177;28;20226;-83
2022/08/04 04:33:58;;;;;;;6.95;3.95;;;19.40;99.90;;;;;;5112148;28;20207;-84
2022/08/04 04:36:33;;;;;;;7.40;3.40;;;19.50;99.90;;;;;;5112896;28;20200;-84
2022/08/04 04:39:13;;;;;;;12.68;3.88;;;19.60;99.90;;;;;;5111911;28;20643;-82
2022/08/04 04:41:55;;;;;;;9.07;3.17;;;19.80;99.90;;;;;;5111794;28;20752;-82
2022/08/04 04:44:48;;;;;;;7.53;3.45;;;20.00;99.90;;;;;;5099563;28;20514;-79
2022/08/04 04:47:27;;;;;;;8.02;3.40;;;20.10;99.90;;;;;;5091947;28;20208;-81
2022/08/04 04:49:59;;;;;;;7.05;3.10;;;20.10;99.90;;;;;;5093911;28;20200;-83
2022/08/04 04:52:34;;;;;;;6.97;3.22;;;20.20;99.90;;;;;;5095492;28;20226;-79
2022/08/04 04:55:10;;;;;;;7.68;3.65;;;20.30;99.90;;;;;;5095058;28;20188;-80
2022/08/04 04:57:39;;;;;;;7.60;3.35;;;20.40;99.90;;;;;;5087336;28;20217;-81
2022/08/04 05:00:08;;;;;;;8.57;3.42;;;20.40;99.90;;;;;;5074715;28;20320;-79
2022/08/04 05:03:04;;;;;;;5.53;2.75;;;20.40;99.90;;;;;;5074664;28;20201;-79
2022/08/04 05:05:43;;;;;;;8.95;3.25;;;20.40;99.90;;;;;;5082547;28;20208;-82
2022/08/04 05:09:10;;;;;;;5.05;2.90;;;20.40;99.90;;;;;;5094739;28;20185;-82
2022/08/04 05:12:15;;;;;;;8.95;3.13;;;20.50;99.90;;;;;;5009659;28;20684;-81
2022/08/04 05:14:46;;;;;;;7.20;3.05;;;20.50;99.90;;;;;;5021239;28;20211;-78
2022/08/04 05:17:18;;;;;;;5.57;3.00;;;20.50;99.90;;;;;;5069010;28;20558;-84
2022/08/04 05:19:55;;;;;;;8.77;3.67;;;20.50;99.90;;;;;;5074790;28;20217;-82
2022/08/04 05:22:26;;;;;;;9.52;3.45;;;20.50;99.90;;;;;;5079223;28;20207;-81
2022/08/04 05:25:00;;;;;;;6.35;4.00;;;20.50;99.90;;;;;;5094393;28;20275;-80
2022/08/04 05:27:34;;;;;;;7.18;4.47;;;20.50;99.90;;;;;;5083630;28;20233;-84
2022/08/04 05:30:05;;;;;;;7.15;3.90;;;20.50;99.90;;;;;;5073995;28;20276;-82
2022/08/04 05:32:40;;;;;;;9.93;4.25;;;20.50;99.90;;;;;;5074740;28;20731;-84
2022/08/04 05:35:12;;;;;;;10.27;4.95;;;20.50;99.90;;;;;;5075221;28;20192;-83
2022/08/04 05:37:41;;;;;;;7.47;4.50;;;20.50;99.90;;;;;;5090739;28;20228;-83
2022/08/04 05:40:10;;;;;;;7.55;4.03;;;20.50;99.90;;;;;;5086625;28;20619;-82
2022/08/04 05:42:39;;;;;;;5.22;2.92;;;20.50;99.90;;;;;;5092379;28;20196;-82
2022/08/04 05:45:08;;;;;;;6.43;2.75;;;20.60;99.90;;;;;;5093382;28;20196;-82
2022/08/04 05:47:35;;;;;;;6.22;2.85;;;20.60;99.90;;;;;;5092300;28;20228;-82
2022/08/04 05:50:04;;;;;;;5.32;3.13;;;20.60;99.90;;;;;;5094261;28;20208;-82
2022/08/04 05:52:34;;;;;;;5.28;2.75;;;20.60;99.90;;;;;;5095206;28;20331;-80
2022/08/04 05:55:02;;;;;;;5.30;2.42;;;20.70;99.90;;;;;;5095177;28;20257;-83
2022/08/04 05:57:30;;;;;;;8.25;2.63;;;20.70;99.90;;;;;;5096456;28;20204;-79
2022/08/04 05:59:59;;;;;;;5.45;2.92;;;20.60;99.90;;;;;;5096151;28;20228;-79
2022/08/04 06:02:30;;;;;;;5.10;2.28;;;20.70;99.90;;;;;;5076921;28;20204;-80
2022/08/04 06:04:59;;;;;;;8.57;3.25;;;20.70;99.90;;;;;;5073938;28;20250;-84
2022/08/04 06:07:26;;;;;;;7.60;2.90;;;20.70;99.90;;;;;;5085218;28;20207;-81
2022/08/04 06:09:54;;;;;;;5.70;2.47;;;20.70;99.90;;;;;;5093981;28;20200;-82
2022/08/04 06:12:25;;;;;;;8.82;2.70;;;20.70;99.90;;;;;;5092765;28;20224;-79
2022/08/04 06:14:55;;;;;;;5.00;2.65;;;20.70;99.90;;;;;;5093662;28;20334;-80
2022/08/04 06:17:25;;;;;;;5.70;2.70;;;20.80;99.90;;;;;;5093386;28;20208;-80
2022/08/04 06:19:53;;;;;;;7.70;2.78;;;20.90;99.90;;;;;;5093260;28;20235;-82
2022/08/04 06:22:23;;;;;;;5.60;2.25;;;20.90;99.90;;;;;;5094524;28;20262;-82
2022/08/04 06:24:51;;;;;;;5.85;2.40;;;21.00;99.90;;;;;;5093319;28;20197;-81
2022/08/04 06:27:20;;;;;;;8.25;2.72;;;21.20;99.90;;;;;;5092733;28;20228;-82
2022/08/04 06:29:49;;;;;;;4.05;2.38;;;21.30;99.90;;;;;;5093797;28;20283;-82
2022/08/04 06:32:26;;;;;;;6.63;2.88;;;21.40;99.90;;;;;;5093176;28;20213;-80
2022/08/04 06:34:56;;;;;;;4.40;2.63;;;21.70;99.90;;;;;;5093075;28;20194;-84
2022/08/04 06:37:23;;;;;;;4.35;2.40;;;21.90;99.90;;;;;;5093873;28;20217;-84
2022/08/04 06:39:51;;;;;;;4.90;2.13;;;22.10;99.90;;;;;;5100644;28;20203;-82
2022/08/04 06:42:23;;;;;;;6.15;2.08;;;22.20;99.90;;;;;;5113521;28;20637;-83
2022/08/04 06:44:54;;;;;;;3.88;1.90;;;22.40;99.90;;;;;;5097547;28;20184;-82
2022/08/04 06:47:22;;;;;;;5.95;2.42;;;22.60;99.90;;;;;;5090668;28;20193;-83
2022/08/04 06:49:51;;;;;;;6.30;2.10;;;22.70;99.90;;;;;;5093659;28;20291;-82
2022/08/04 06:52:19;;;;;;;4.13;1.70;;;22.90;99.90;;;;;;5093709;28;20222;-83
2022/08/04 06:54:48;;;;;;;3.72;1.80;;;23.20;99.90;;;;;;5092720;28;20189;-84
2022/08/04 06:57:19;;;;;;;4.35;2.03;;;23.40;99.90;;;;;;5093028;28;20567;-83
2022/08/04 06:59:51;;;;;;;3.67;1.88;;;23.60;99.90;;;;;;5092633;28;20640;-82
2022/08/04 07:02:22;;;;;;;3.90;1.80;;;23.80;99.90;;;;;;5079560;28;20212;-84
2022/08/04 07:04:49;;;;;;;6.05;1.90;;;24.00;95.10;;;;;;5081911;28;20520;-82
2022/08/04 07:07:19;;;;;;;7.20;1.80;;;24.20;51.40;;;;;;5095725;22;20197;-81
2022/08/04 07:09:46;;;;;;;3.47;1.73;;;24.40;7.90;;;;;;5123125;27;20207;-80
2022/08/04 07:12:19;;;;;;;4.60;1.85;;;24.50;1.00;;;;;;5119188;27;20204;-81
2022/08/04 07:14:48;;;;;;;4.82;1.60;;;24.60;1.00;;;;;;5119939;27;20286;-81
2022/08/04 07:17:16;;;;;;;3.30;1.75;;;24.70;1.00;;;;;;5112808;27;20290;-83
2022/08/04 07:19:44;;;;;;;4.45;1.65;;;25.00;1.00;;;;;;5118352;27;20550;-81
2022/08/04 07:22:11;;;;;;;8.52;1.67;;;25.30;1.00;;;;;;5119722;27;20227;-81
2022/08/04 07:24:41;;;;;;;5.20;1.75;;;25.40;1.00;;;;;;5123873;27;20215;-81
2022/08/04 07:27:08;;;;;;;7.55;1.80;;;25.60;1.00;;;;;;5111778;28;20286;-81
2022/08/04 07:29:35;;;;;;;4.57;1.65;;;25.70;1.00;;;;;;5111798;28;20693;-81
2022/08/04 07:32:06;;;;;;;4.40;1.48;;;25.90;1.00;;;;;;5122235;27;20195;-82
2022/08/04 07:34:33;;;;;;;6.22;1.90;;;26.20;99.90;;;;;;5115791;28;20890;-82
2022/08/04 07:37:01;;;;;;;2.63;1.48;;;26.50;99.90;;;;;;5111940;28;20673;-82
2022/08/04 07:39:30;;;;;;;4.88;1.67;;;26.60;48.20;;;;;;5112371;28;20661;-81
2022/08/04 07:41:59;;;;;;;5.38;1.90;;;26.80;1.00;;;;;;5112640;28;20292;-83
2022/08/04 07:44:26;;;;;;;7.97;2.10;;;26.90;1.00;;;;;;5111772;28;20196;-82
2022/08/04 07:46:54;;;;;;;4.05;1.52;;;27.10;1.00;;;;;;5112581;28;20286;-81
2022/08/04 07:49:23;;;;;;;2.25;1.30;;;27.20;99.90;;;;;;5112353;28;20203;-82
2022/08/04 07:51:50;;;;;;;4.15;1.60;;;27.40;99.90;;;;;;5114942;28;20294;-86
2022/08/04 07:54:18;;;;;;;3.35;1.48;;;27.40;1.00;;;;;;5129020;28;20568;-85
2022/08/04 07:56:47;;;;;;;4.20;1.60;;;27.50;22.00;;;;;;5128939;28;20191;-85
2022/08/04 07:59:14;;;;;;;4.65;1.48;;;27.60;1.00;;;;;;5129534;28;20203;-87
2022/08/04 08:01:42;;;;;;;3.83;1.40;;;27.80;97.20;;;;;;5133366;28;20201;-87
2022/08/04 08:04:10;;;;;;;4.07;1.70;;;27.90;1.00;;;;;;5119010;28;20203;-87
2022/08/04 08:06:40;;;;;;;3.72;1.65;;;28.00;1.00;;;;;;5134004;28;20199;-85
2022/08/04 08:09:08;;;;;;;5.68;1.60;;;28.00;1.00;;;;;;5134324;28;20227;-85
2022/08/04 08:11:35;;;;;;;6.13;1.73;;;28.20;1.00;;;;;;5134894;28;20231;-89
2022/08/04 08:14:07;;;;;;;4.05;1.48;;;28.30;1.00;;;;;;5126528;28;20298;-82
2022/08/04 08:16:34;;;;;;;2.70;1.30;;;28.50;1.00;;;;;;5132293;28;20535;-81
2022/08/04 08:19:02;;;;;;;3.75;1.60;;;28.50;1.00;;;;;;5113864;28;20207;-81
2022/08/04 08:21:29;;;;;;;4.03;1.52;;;28.70;1.00;;;;;;5119708;28;20229;-82
2022/08/04 08:23:58;;;;;;;1.75;1.10;;;28.90;1.00;;;;;;5133876;27;20199;-86
2022/08/04 08:26:25;;;;;;;2.60;1.35;;;29.00;99.90;;;;;;5134408;27;20202;-81
2022/08/04 08:28:52;;;;;;;2.50;1.45;;;29.00;99.90;;;;;;5116310;28;20196;-80
2022/08/04 08:31:19;;;;;;;3.13;1.17;;;29.20;99.90;;;;;;5116160;28;20200;-83
2022/08/04 08:33:47;;;;;;;4.35;1.17;;;29.20;99.90;;;;;;5114844;28;20220;-86
2022/08/04 08:36:21;;;;;;;2.38;1.27;;;29.10;99.90;;;;;;5116043;27;20530;-82
2022/08/04 08:38:55;;;;;;;2.70;1.52;;;29.20;99.90;;;;;;5114610;28;20346;-84
2022/08/04 08:41:51;;;;;;;2.35;1.27;;;29.30;99.90;;;;;;5113077;28;20206;-85
2022/08/04 08:44:56;;;;;;;4.68;1.70;;;29.40;99.90;;;;;;5115083;28;20192;-82
2022/08/04 08:47:39;;;;;;;1.75;1.10;;;29.40;99.90;;;;;;5115231;27;20259;-83
2022/08/04 08:50:40;;;;;;;3.85;1.50;;;29.50;99.90;;;;;;5115458;28;20197;-80
2022/08/04 08:53:23;;;;;;;3.72;1.33;;;29.40;99.90;;;;;;5115459;27;20215;-84
2022/08/04 08:56:12;;;;;;;4.30;1.50;;;29.20;99.90;;;;;;5114327;28;20207;-81
2022/08/04 08:58:56;;;;;;;2.55;1.17;;;29.20;99.90;;;;;;5115727;27;20555;-81
2022/08/04 09:01:39;;;;;;;4.22;1.55;;;29.40;99.90;;;;;;5114765;28;20210;-82
2022/08/04 09:04:43;;;;;;;5.95;1.60;;;29.40;99.90;;;;;;5115253;28;20315;-81
2022/08/04 09:07:34;;;;;;;4.28;1.45;;;29.20;99.90;;;;;;5113779;28;20223;-79
2022/08/04 09:10:08;;;;;;;6.25;1.98;;;29.00;99.90;;;;;;5115084;28;20206;-82
2022/08/04 09:12:41;;;;;;;3.95;1.20;;;28.90;99.90;;;;;;5115085;28;20293;-83
2022/08/04 09:15:14;;;;;;;4.47;1.58;;;28.80;99.90;;;;;;5114641;27;20211;-83
2022/08/04 09:17:47;;;;;;;4.90;1.40;;;28.70;99.90;;;;;;5115770;27;20200;-83
2022/08/04 09:20:22;;;;;;;1.75;1.23;;;28.80;99.90;;;;;;5115369;28;20474;-82
2022/08/04 09:22:54;;;;;;;3.88;1.30;;;28.70;99.90;;;;;;5114490;27;20203;-81
2022/08/04 09:25:25;;;;;;;4.07;1.70;;;28.80;99.90;;;;;;5115346;28;20483;-80
2022/08/04 09:27:54;;;;;;;5.25;1.65;;;28.70;99.90;;;;;;5132830;27;20211;-80
2022/08/04 09:30:29;;;;;;;3.28;1.52;;;28.60;99.90;;;;;;5134399;27;20195;-81
2022/08/04 09:33:10;;;;;;;3.47;1.48;;;28.40;99.90;;;;;;5115786;27;20373;-79
2022/08/04 09:35:44;;;;;;;2.67;1.40;;;28.10;99.90;;;;;;5113680;28;20215;-83
2022/08/04 09:38:19;;;;;;;3.78;1.48;;;27.80;99.90;;;;;;5114387;27;20238;-83
2022/08/04 09:40:51;;;;;;;3.25;1.33;;;27.60;99.90;;;;;;5114762;28;20226;-82
2022/08/04 09:43:29;;;;;;;5.38;1.85;;;27.50;99.90;;;;;;5113723;27;20203;-80
2022/08/04 09:46:04;;;;;;;4.60;1.70;;;27.30;99.90;;;;;;5114606;28;20196;-82
2022/08/04 09:48:42;;;;;;;5.63;1.63;;;27.20;99.90;;;;;;5113954;27;20211;-82
2022/08/04 09:51:20;;;;;;;3.17;1.50;;;27.30;99.90;;;;;;5113441;28;20511;-80
2022/08/04 09:53:57;;;;;;;3.83;1.70;;;27.40;99.90;;;;;;5113668;28;20227;-81
2022/08/04 09:56:30;;;;;;;3.70;1.80;;;27.70;99.90;;;;;;5113635;27;20238;-79
2022/08/04 09:59:08;;;;;;;4.90;1.65;;;28.00;99.90;;;;;;5113276;28;20199;-80
2022/08/04 10:01:38;;;;;;;4.00;1.50;;;27.90;99.90;;;;;;5113833;27;20204;-80
2022/08/04 10:04:10;;;;;;;2.90;1.50;;;27.70;99.90;;;;;;5112834;28;20192;-81
2022/08/04 10:06:48;;;;;;;4.32;1.80;;;27.60;99.90;;;;;;5123481;27;20874;-81
2022/08/04 10:09:32;;;;;;;4.50;1.75;;;27.50;99.90;;;;;;5134257;27;20291;-82
2022/08/04 10:12:16;;;;;;;3.67;1.67;;;27.70;99.90;;;;;;5133979;27;20193;-81
2022/08/04 10:14:52;;;;;;;5.50;2.00;;;28.00;99.90;;;;;;5124743;27;20290;-82
2022/08/04 10:17:35;;;;;;;2.72;1.40;;;28.10;99.90;;;;;;5113769;28;20615;-81
2022/08/04 10:20:09;;;;;;;2.88;1.55;;;28.00;99.90;;;;;;5113117;27;20200;-80
2022/08/04 10:22:43;;;;;;;2.20;1.10;;;27.90;99.90;;;;;;5113538;28;20222;-81
2022/08/04 10:25:24;;;;;;;3.13;1.67;;;27.80;99.90;;;;;;5112760;28;20196;-80
2022/08/04 10:27:55;;;;;;;3.25;1.30;;;27.70;99.90;;;;;;5113534;28;20214;-80
2022/08/04 10:30:24;;;;;;;3.42;1.65;;;27.70;99.90;;;;;;5114019;28;20286;-85
2022/08/04 10:33:00;;;;;;;3.28;1.73;;;27.80;99.90;;;;;;5113589;28;20208;-83
2022/08/04 10:35:32;;;;;;;4.50;1.73;;;27.90;99.90;;;;;;5128006;27;20230;-85
2022/08/04 10:38:09;;;;;;;3.85;1.33;;;27.90;99.90;;;;;;5134603;27;20226;-83
2022/08/04 10:40:44;;;;;;;4.47;1.80;;;28.00;99.90;;;;;;5114182;27;20237;-82
2022/08/04 10:43:22;;;;;;;5.63;1.70;;;28.10;99.90;;;;;;5113823;28;20274;-80
2022/08/04 10:45:53;;;;;;;4.25;1.40;;;28.10;99.90;;;;;;5122544;27;20227;-82
2022/08/04 10:48:27;;;;;;;3.45;1.60;;;28.20;99.90;;;;;;5133265;27;20667;-81
2022/08/04 10:51:03;;;;;;;2.75;1.48;;;28.30;99.90;;;;;;5134258;27;20211;-82
2022/08/04 10:53:31;;;;;;;4.05;1.75;;;28.60;99.90;;;;;;5129723;27;20218;-82
2022/08/04 10:56:04;;;;;;;6.35;1.70;;;28.70;99.90;;;;;;5114631;28;20256;-85
2022/08/04 10:58:42;;;;;;;5.30;1.73;;;28.80;99.90;;;;;;5113551;28;20509;-84
2022/08/04 11:01:16;;;;;;;5.03;1.67;;;28.70;99.90;;;;;;5129403;27;20558;-81
2022/08/04 11:03:51;;;;;;;5.45;1.77;;;28.40;99.90;;;;;;5134119;27;20190;-83
2022/08/04 11:06:19;;;;;;;4.47;1.52;;;28.20;99.90;;;;;;5119885;27;20609;-83
2022/08/04 11:08:50;;;;;;;4.30;1.40;;;28.20;99.90;;;;;;5112400;28;20288;-83
2022/08/04 11:11:24;;;;;;;3.00;1.60;;;28.30;99.90;;;;;;5112950;28;20537;-82
2022/08/04 11:14:00;;;;;;;4.40;1.40;;;28.50;99.90;;;;;;5112685;28;20220;-82
2022/08/04 11:16:31;;;;;;;4.00;1.35;;;28.60;99.90;;;;;;5112201;28;20278;-82
2022/08/04 11:19:10;;;;;;;5.13;1.60;;;28.60;99.90;;;;;;5112820;28;20584;-79
2022/08/04 11:21:43;;;;;;;3.08;1.25;;;28.60;99.90;;;;;;5112166;28;20744;-82
2022/08/04 11:24:17;;;;;;;3.72;1.40;;;28.60;99.90;;;;;;5113574;28;20237;-83
2022/08/04 11:26:49;;;;;;;3.95;1.38;;;28.50;99.90;;;;;;5117430;27;20209;-81
2022/08/04 11:29:23;;;;;;;4.18;1.83;;;28.50;99.90;;;;;;5115327;27;20596;-86
2022/08/04 11:31:50;;;;;;;4.53;1.42;;;28.70;99.90;;;;;;5112681;27;20683;-82
2022/08/04 11:34:21;;;;;;;2.10;1.33;;;28.80;99.90;;;;;;5113025;28;20223;-81
2022/08/04 11:36:54;;;;;;;3.50;1.13;;;28.90;99.90;;;;;;5116120;27;20546;-81
2022/08/04 11:39:29;;;;;;;4.78;1.30;;;28.90;99.90;;;;;;5123133;28;20196;-83
2022/08/04 11:42:01;;;;;;;3.13;1.42;;;29.00;99.90;;;;;;5128198;28;20197;-82
2022/08/04 11:44:35;;;;;;;4.53;1.38;;;29.20;99.90;;;;;;5125000;28;20233;-81
2022/08/04 11:47:09;;;;;;;2.80;1.27;;;29.20;99.90;;;;;;5132912;27;20201;-84
2022/08/04 11:49:44;;;;;;;4.05;1.40;;;29.40;99.90;;;;;;5132453;28;20207;-82
2022/08/04 11:52:14;;;;;;;3.90;1.42;;;29.70;99.90;;;;;;5128193;27;20269;-86
2022/08/04 11:54:41;;;;;;;2.92;1.60;;;29.70;99.90;;;;;;5112932;28;20246;-81
2022/08/04 11:57:10;;;;;;;4.40;1.58;;;29.70;99.90;;;;;;5111930;28;20214;-82
2022/08/04 11:59:38;;;;;;;5.85;1.40;;;29.70;99.90;;;;;;5115038;28;20196;-83
2022/08/04 12:02:33;;;;;;;2.75;1.25;;;29.70;99.90;;;;;;5116943;27;20283;-82
2022/08/04 12:05:03;;;;;;;3.35;1.23;;;29.50;99.90;;;;;;5116081;28;20199;-83
2022/08/04 12:07:42;;;;;;;3.63;1.20;;;29.40;99.90;;;;;;5117260;28;20280;-83
2022/08/04 12:10:21;;;;;;;1.73;0.93;;;29.50;99.90;;;;;;5116903;28;20206;-85
2022/08/04 12:12:58;;;;;;;1.70;1.27;;;29.50;99.90;;;;;;5118296;27;20623;-80
2022/08/04 12:15:30;;;;;;;3.22;1.20;;;29.60;99.90;;;;;;5124435;22;20681;-85
2022/08/04 12:18:07;;;;;;;2.78;0.98;;;29.50;99.90;;;;;;5116963;28;20211;-84
2022/08/04 12:20:42;;;;;;;3.63;1.33;;;29.30;99.90;;;;;;5110271;28;20612;-83
2022/08/04 12:23:19;;;;;;;4.60;1.40;;;28.90;99.90;;;;;;5097068;28;20282;-87
2022/08/04 12:25:50;;;;;;;4.32;1.65;;;28.80;99.90;;;;;;5096605;28;20595;-81
2022/08/04 12:28:24;;;;;;;3.47;1.85;;;28.60;99.90;;;;;;5096006;28;20218;-82
2022/08/04 12:30:58;;;;;;;6.07;1.80;;;28.70;99.90;;;;;;5108815;28;20759;-82
2022/08/04 12:33:31;;;;;;;5.68;1.77;;;28.50;99.90;;;;;;5118939;28;20199;-83
2022/08/04 12:36:08;;;;;;;3.08;1.42;;;28.40;99.90;;;;;;5119595;28;20300;-82
2022/08/04 12:38:35;;;;;;;3.58;1.70;;;28.30;99.90;;;;;;5108917;28;20292;-83
2022/08/04 12:41:03;;;;;;;4.30;1.80;;;28.40;99.90;;;;;;5094470;28;20181;-86
2022/08/04 12:43:37;;;;;;;4.60;2.05;;;28.60;99.90;;;;;;5094643;28;20207;-81
2022/08/04 12:46:06;;;;;;;3.80;1.63;;;28.70;99.90;;;;;;5099925;28;20231;-82
2022/08/04 12:48:36;;;;;;;3.55;1.42;;;28.80;99.90;;;;;;5097868;28;20204;-80
2022/08/04 12:51:07;;;;;;;4.80;1.58;;;28.80;99.90;;;;;;5093069;28;20196;-84
2022/08/04 12:53:37;;;;;;;3.88;1.65;;;29.00;99.90;;;;;;5092568;28;20290;-84
2022/08/04 12:56:06;;;;;;;5.43;1.65;;;29.00;99.90;;;;;;5089266;28;20224;-82
2022/08/04 12:58:37;;;;;;;6.72;1.83;;;29.10;99.90;;;;;;5094708;28;20204;-81
2022/08/04 13:01:08;;;;;;;3.75;1.80;;;28.90;99.90;;;;;;5089539;28;20197;-83
2022/08/04 13:03:39;;;;;;;6.53;1.98;;;28.90;99.90;;;;;;5094507;28;20218;-82
2022/08/04 13:06:11;;;;;;;4.32;1.75;;;28.70;99.90;;;;;;5095359;28;20780;-82
2022/08/04 13:08:41;;;;;;;6.18;1.77;;;28.80;99.90;;;;;;5094575;28;20589;-81
2022/08/04 13:11:10;;;;;;;5.03;2.03;;;28.80;99.90;;;;;;5091321;28;20205;-83
2022/08/04 13:13:39;;;;;;;3.30;1.75;;;28.80;99.90;;;;;;5094320;28;20204;-81
2022/08/04 13:16:08;;;;;;;3.65;1.42;;;28.80;99.90;;;;;;5089559;28;20237;-83
2022/08/04 13:18:39;;;;;;;5.07;1.67;;;28.80;99.90;;;;;;5094960;28;20208;-81
2022/08/04 13:21:16;;;;;;;4.68;1.60;;;28.60;99.90;;;;;;5088236;28;20196;-83
2022/08/04 13:23:45;;;;;;;7.45;2.08;;;28.50;99.90;;;;;;5083531;28;20204;-80
2022/08/04 13:26:13;;;;;;;5.45;1.80;;;28.20;99.90;;;;;;5088566;28;20812;-84
2022/08/04 13:28:43;;;;;;;5.55;1.58;;;28.10;99.90;;;;;;5094790;28;20371;-83
2022/08/04 13:31:14;;;;;;;5.70;2.10;;;27.70;99.90;;;;;;5083929;28;20216;-81
2022/08/04 13:33:45;;;;;;;3.22;1.50;;;27.40;99.90;;;;;;5088862;28;20460;-83